createdAt,value
2017-07-22T14:23:58.701Z,99628.61
2017-07-22T14:29:00.440Z,99624.88
2017-07-22T14:31:28.054Z,99623.98
2017-07-22T14:33:55.654Z,99626.55
2017-07-22T14:36:23.309Z,99623.76
2017-07-22T14:38:50.909Z,99601.88
2017-07-22T14:41:18.508Z,99625.69
2017-07-22T14:43:46.170Z,99625.42
2017-07-22T14:46:13.761Z,99620.66
2017-07-22T14:48:41.350Z,99615.92
2017-07-22T14:51:09.011Z,99621.89
2017-07-22T14:53:36.638Z,99619.52
2017-07-22T14:56:04.334Z,99622.69
2017-07-22T14:58:32.048Z,99624.83
2017-07-22T15:00:59.642Z,99625.20
2017-07-22T15:03:27.240Z,99617.72
2017-07-22T15:05:54.899Z,99618.23
2017-07-22T15:08:22.531Z,99613.39
2017-07-22T15:10:50.152Z,99618.11
2017-07-22T15:13:17.811Z,99623.05
2017-07-22T15:15:45.422Z,99615.64
2017-07-22T15:18:13.019Z,99623.23
2017-07-22T15:20:40.663Z,99614.20
2017-07-22T15:23:08.250Z,99619.69
2017-07-22T15:25:35.879Z,99622.98
2017-07-22T15:28:03.542Z,99621.26
2017-07-22T15:30:31.365Z,99621.45
2017-07-22T15:32:58.949Z,99617.30
2017-07-22T15:35:26.727Z,99624.23
2017-07-22T15:37:54.331Z,99620.78
2017-07-22T15:40:22.007Z,99616.59
2017-07-22T15:42:49.729Z,99609.23
2017-07-22T15:45:17.340Z,99604.52
2017-07-22T15:47:45.036Z,99558.98
2017-07-22T15:50:12.695Z,99602.89
2017-07-22T15:52:40.301Z,99596.70
2017-07-22T15:55:07.913Z,99595.98
2017-07-22T15:57:35.573Z,99597.17
2017-07-22T16:00:03.192Z,99598.60
2017-07-22T16:02:30.795Z,99598.48
2017-07-22T16:04:58.464Z,99588.27
2017-07-22T16:07:26.130Z,99594.67
2017-07-22T16:09:53.721Z,99588.45
2017-07-22T16:12:21.449Z,99591.48
2017-07-22T16:14:49.053Z,99582.02
2017-07-22T16:17:16.746Z,99588.03
2017-07-22T16:19:44.415Z,99587.92
2017-07-22T16:22:12.029Z,99585.05
2017-07-22T16:24:39.643Z,99586.38
2017-07-22T16:27:07.314Z,99584.06
2017-07-22T16:29:34.899Z,99584.27
2017-07-22T16:32:02.498Z,99586.83
2017-07-22T16:34:30.172Z,99578.12
2017-07-22T16:36:57.775Z,99581.55
2017-07-22T16:39:25.395Z,99584.42
2017-07-22T16:41:53.057Z,99586.97
2017-07-22T16:44:20.676Z,99590.05
2017-07-22T16:46:48.339Z,99588.14
2017-07-22T16:49:15.993Z,99582.29
2017-07-22T16:51:43.610Z,99586.50
2017-07-22T16:54:11.228Z,99587.92
2017-07-22T16:56:38.909Z,99581.98
2017-07-22T16:59:06.536Z,99598.70
2017-07-22T17:01:34.161Z,99586.09
2017-07-22T17:04:01.837Z,99591.99
2017-07-22T17:06:29.448Z,99592.59
2017-07-22T17:08:57.109Z,99600.91
2017-07-22T17:11:24.768Z,99604.05
2017-07-22T17:13:52.394Z,99605.16
2017-07-22T17:16:20.001Z,99610.74
2017-07-22T17:18:47.667Z,99617.09
2017-07-22T17:21:15.254Z,99622.39
2017-07-22T17:23:42.858Z,99628.33
2017-07-22T17:26:10.522Z,99628.02
2017-07-22T17:28:38.136Z,99631.70
2017-07-22T17:31:05.774Z,99638.16
2017-07-22T17:33:33.435Z,99645.52
2017-07-22T17:36:01.041Z,99643.84
2017-07-22T17:38:28.648Z,99654.85
2017-07-22T17:40:56.302Z,99665.56
2017-07-22T17:43:23.913Z,99664.84
2017-07-22T17:45:51.504Z,99669.60
2017-07-22T17:48:19.168Z,99677.34
2017-07-22T17:50:46.779Z,99678.26
2017-07-22T17:53:14.393Z,99680.25
2017-07-22T17:55:42.035Z,99683.04
2017-07-22T17:58:09.663Z,99684.34
2017-07-22T18:00:37.275Z,99679.58
2017-07-22T18:03:04.952Z,99686.00
2017-07-22T18:05:32.643Z,99682.44
2017-07-22T18:08:00.281Z,99681.81
2017-07-22T18:10:27.968Z,99698.05
2017-07-22T18:12:55.589Z,99685.97
2017-07-22T18:15:23.190Z,99704.89
2017-07-22T18:17:50.861Z,99709.97
2017-07-22T18:20:18.479Z,99711.41
2017-07-22T18:22:46.072Z,99711.87
2017-07-22T18:25:13.712Z,99718.16
2017-07-22T18:27:41.310Z,99717.27
2017-07-22T18:30:08.905Z,99716.35
2017-07-22T18:32:36.551Z,99719.41
2017-07-22T18:35:04.192Z,99727.13
2017-07-22T18:37:31.786Z,99720.40
2017-07-22T18:39:59.443Z,99724.77
2017-07-22T18:42:27.069Z,99725.38
2017-07-22T18:44:54.811Z,99721.55
2017-07-22T18:47:23.533Z,99730.55
2017-07-22T18:49:51.142Z,99725.70
2017-07-22T18:52:18.765Z,99734.41
2017-07-22T18:54:46.439Z,99736.00
2017-07-22T18:57:14.046Z,99739.84
2017-07-22T18:59:41.635Z,99747.34
2017-07-22T19:02:09.287Z,99741.25
2017-07-22T19:04:36.915Z,99740.41
2017-07-22T19:07:04.528Z,99742.14
2017-07-22T19:09:32.191Z,99742.25
2017-07-22T19:12:00.003Z,99746.70
2017-07-22T19:14:27.648Z,99738.27
2017-07-22T19:16:55.349Z,99741.48
2017-07-22T19:19:22.970Z,99743.17
2017-07-22T19:21:50.628Z,99745.75
2017-07-22T19:24:18.439Z,99738.66
2017-07-22T19:26:46.068Z,99738.30
2017-07-22T19:29:13.670Z,99738.38
2017-07-22T19:31:41.326Z,99730.81
2017-07-22T19:34:08.925Z,99728.09
2017-07-22T19:36:36.550Z,99724.98
2017-07-22T19:39:04.570Z,99735.86
2017-07-22T19:41:32.292Z,99734.98
2017-07-22T19:44:00.046Z,99730.85
2017-07-22T19:46:27.834Z,99731.75
2017-07-22T19:48:55.492Z,99730.22
2017-07-22T19:51:23.118Z,99727.98
2017-07-22T19:53:50.793Z,99715.44
2017-07-22T19:56:18.438Z,99727.81
2017-07-22T19:58:46.060Z,99731.38
2017-07-22T20:01:13.785Z,99728.41
2017-07-22T20:03:41.485Z,99728.03
2017-07-22T20:06:09.108Z,99722.95
2017-07-22T20:08:36.772Z,99722.64
2017-07-22T20:11:04.374Z,99718.45
2017-07-22T20:13:32.064Z,99715.97
2017-07-22T20:15:59.728Z,99718.96
2017-07-22T20:18:27.352Z,99722.26
2017-07-22T20:20:54.961Z,99727.30
2017-07-22T20:23:22.647Z,99730.79
2017-07-22T20:25:50.240Z,99733.99
2017-07-22T20:28:17.845Z,99733.84
2017-07-22T20:30:45.499Z,99733.69
2017-07-22T20:33:13.099Z,99746.66
2017-07-22T20:35:40.701Z,99745.03
2017-07-22T20:38:08.384Z,99744.63
2017-07-22T20:40:35.981Z,99744.16
2017-07-22T20:43:03.590Z,99742.26
2017-07-22T20:45:31.252Z,99741.38
2017-07-22T20:47:58.850Z,99741.34
2017-07-22T20:50:26.442Z,99747.80
2017-07-22T20:52:54.173Z,99742.87
2017-07-22T20:55:21.784Z,99740.88
2017-07-22T20:57:49.404Z,99745.20
2017-07-22T21:00:17.076Z,99748.00
2017-07-22T21:02:44.698Z,99747.79
2017-07-22T21:05:12.318Z,99745.52
2017-07-22T21:07:40.001Z,99743.88
2017-07-22T21:10:07.598Z,99742.80
2017-07-22T21:12:35.200Z,99747.02
2017-07-22T21:15:02.881Z,99745.58
2017-07-22T21:17:30.483Z,99747.68
2017-07-22T21:19:58.201Z,99743.58
2017-07-22T21:22:25.840Z,99743.27
2017-07-22T21:24:53.431Z,99746.53
2017-07-22T21:27:21.016Z,99744.48
2017-07-22T21:29:48.657Z,99739.48
2017-07-22T21:32:16.259Z,99740.70
2017-07-22T21:34:43.860Z,99730.94
2017-07-22T21:37:11.519Z,99737.43
2017-07-22T21:39:39.126Z,99733.89
2017-07-22T21:42:06.725Z,99734.34
2017-07-22T21:44:34.376Z,99731.77
2017-07-22T21:47:02.044Z,99728.05
2017-07-22T21:49:29.654Z,99728.20
2017-07-22T21:51:57.296Z,99726.06
2017-07-22T21:54:24.907Z,99730.17
2017-07-22T21:56:52.516Z,99727.34
2017-07-22T21:59:20.150Z,99726.65
2017-07-22T22:01:47.830Z,99726.75
2017-07-22T22:04:15.463Z,99727.71
2017-07-22T22:06:43.231Z,99722.70
2017-07-22T22:09:10.879Z,99727.00
2017-07-22T22:11:38.595Z,99723.87
2017-07-22T22:14:06.247Z,99721.39
2017-07-22T22:16:33.908Z,99725.43
2017-07-22T22:19:01.514Z,99718.45
2017-07-22T22:21:29.181Z,99720.63
2017-07-22T22:23:56.810Z,99726.50
2017-07-22T22:26:24.426Z,99730.73
2017-07-22T22:28:52.092Z,99726.44
2017-07-22T22:31:19.704Z,99726.41
2017-07-22T22:33:47.303Z,99720.33
2017-07-22T22:36:14.992Z,99720.06
2017-07-22T22:38:42.590Z,99715.67
2017-07-22T22:41:10.174Z,99714.00
2017-07-22T22:43:37.826Z,99719.37
2017-07-22T22:46:05.426Z,99717.54
2017-07-22T22:48:33.037Z,99715.12
2017-07-22T22:51:00.688Z,99720.07
2017-07-22T22:53:28.282Z,99718.20
2017-07-22T22:55:55.877Z,99725.84
2017-07-22T22:58:23.518Z,99719.63
2017-07-22T23:00:51.115Z,99721.44
2017-07-22T23:03:18.694Z,99715.62
2017-07-22T23:05:46.370Z,99712.99
2017-07-22T23:08:13.987Z,99714.36
2017-07-22T23:10:41.631Z,99710.31
2017-07-22T23:13:09.297Z,99708.98
2017-07-22T23:15:36.906Z,99702.17
2017-07-22T23:18:04.563Z,99701.67
2017-07-22T23:20:32.261Z,99709.48
2017-07-22T23:22:59.865Z,99707.97
2017-07-22T23:25:27.463Z,99705.00
2017-07-22T23:27:55.133Z,99702.25
2017-07-22T23:30:22.746Z,99705.02
2017-07-22T23:32:50.357Z,99704.91
2017-07-22T23:35:18.010Z,99705.47
2017-07-22T23:37:45.602Z,99708.90
2017-07-22T23:40:13.228Z,99710.30
2017-07-22T23:42:40.894Z,99715.09
2017-07-22T23:45:08.498Z,99714.80
2017-07-22T23:47:36.108Z,99707.69
2017-07-22T23:50:03.785Z,99708.06
2017-07-22T23:52:31.398Z,99700.88
2017-07-22T23:54:58.997Z,99703.34
2017-07-22T23:57:26.661Z,99703.93
2017-07-22T23:59:54.278Z,99703.13
